Time;durP1;ratioP1;P1;durP2;ratioP2;P2;SDS_P1;SDS_P2;PMS_P1;PMS_P2;Temp;Humidity;BMP_temperature;BMP_pressure;BME280_temperature;BME280_humidity;BME280_pressure;Samples;Min_cycle;Max_cycle;Signal;HPM_P1;HPM_P2
2022/05/24 00:00:13;;;;;;;4.50;3.10;;;15.70;99.90;;;;;;4932533;29;20476;-81
2022/05/24 00:02:40;;;;;;;3.67;3.33;;;15.60;99.90;;;;;;4932986;29;20460;-82
2022/05/24 00:05:06;;;;;;;7.87;4.47;;;15.70;99.90;;;;;;4933868;29;20543;-82
2022/05/24 00:07:31;;;;;;;5.67;4.30;;;15.70;99.90;;;;;;4933525;29;20582;-81
2022/05/24 00:09:57;;;;;;;4.10;3.50;;;15.60;99.90;;;;;;4930864;29;20461;-81
2022/05/24 00:12:22;;;;;;;4.57;3.90;;;15.70;99.90;;;;;;4934839;29;20304;-81
2022/05/24 00:17:33;;;;;;;4.43;4.03;;;15.70;99.90;;;;;;4934559;29;20192;-83
2022/05/24 00:20:00;;;;;;;6.87;5.00;;;15.60;99.90;;;;;;4933405;29;20941;-82
2022/05/24 00:22:26;;;;;;;4.77;4.37;;;15.60;99.90;;;;;;4934441;29;21092;-84
2022/05/24 00:24:51;;;;;;;6.57;4.70;;;15.60;99.90;;;;;;4936605;29;20437;-82
2022/05/24 00:27:17;;;;;;;6.23;4.40;;;15.60;99.90;;;;;;4934076;29;20455;-83
2022/05/24 00:29:42;;;;;;;4.97;4.47;;;15.60;99.90;;;;;;4934151;29;20193;-81
2022/05/24 00:32:08;;;;;;;8.03;5.50;;;15.60;99.90;;;;;;4950091;28;20686;-86
2022/05/24 00:34:34;;;;;;;5.93;5.43;;;15.40;99.90;;;;;;4934335;29;20342;-84
2022/05/24 00:36:59;;;;;;;6.40;5.80;;;15.50;99.90;;;;;;4937677;29;20429;-86
2022/05/24 00:39:25;;;;;;;10.90;7.17;;;15.40;99.90;;;;;;4935098;29;20518;-81
2022/05/24 00:42:03;;;;;;;7.63;6.87;;;15.40;99.90;;;;;;4935014;29;20206;-87
2022/05/24 00:44:33;;;;;;;8.37;7.03;;;15.30;99.90;;;;;;4937091;29;20476;-82
2022/05/24 00:47:09;;;;;;;7.23;6.20;;;15.30;99.90;;;;;;4935699;29;20424;-83
2022/05/24 00:49:46;;;;;;;8.30;7.33;;;15.30;99.90;;;;;;4931912;29;20428;-85
2022/05/24 00:52:31;;;;;;;9.10;6.00;;;15.20;99.90;;;;;;4931664;29;21044;-85
2022/05/24 00:54:59;;;;;;;7.37;6.60;;;15.20;99.90;;;;;;4936609;29;20492;-84
2022/05/24 00:57:34;;;;;;;7.63;6.83;;;15.10;99.90;;;;;;4931076;29;21537;-84
2022/05/24 01:00:21;;;;;;;8.50;6.63;;;15.30;99.90;;;;;;4934500;29;20439;-84
2022/05/24 01:02:48;;;;;;;10.53;6.90;;;15.10;99.90;;;;;;4933153;29;20456;-83
2022/05/24 01:05:22;;;;;;;8.97;6.20;;;15.10;99.90;;;;;;4953766;28;20436;-83
2022/05/24 01:07:48;;;;;;;9.10;6.40;;;15.10;99.90;;;;;;4934123;29;20980;-82
2022/05/24 01:10:25;;;;;;;12.30;8.50;;;15.20;99.90;;;;;;4940368;29;20433;-85
2022/05/24 01:12:59;;;;;;;9.70;6.67;;;15.20;99.90;;;;;;4940034;29;20303;-85
2022/05/24 01:15:26;;;;;;;7.83;6.10;;;15.20;99.90;;;;;;4939331;29;20437;-83
2022/05/24 01:17:55;;;;;;;6.40;5.80;;;15.10;99.90;;;;;;4941233;29;20429;-82
2022/05/24 01:20:21;;;;;;;9.77;5.77;;;15.00;99.90;;;;;;4954680;28;21068;-81
2022/05/24 01:23:00;;;;;;;7.43;6.40;;;15.00;99.90;;;;;;4940535;29;20457;-83
2022/05/24 01:26:03;;;;;;;8.30;5.73;;;15.10;99.90;;;;;;4941834;29;20452;-83
2022/05/24 01:28:29;;;;;;;6.60;6.00;;;;;;;;;;4937320;29;20940;-82
2022/05/24 01:30:56;;;;;;;8.30;6.43;;;15.00;99.90;;;;;;4944088;29;20463;-84
2022/05/24 01:36:10;;;;;;;8.30;5.27;;;14.90;99.90;;;;;;4946719;29;20443;-84
2022/05/24 01:38:39;;;;;;;6.17;5.57;;;14.90;99.90;;;;;;4949015;29;20496;-84
2022/05/24 01:41:06;;;;;;;6.40;5.60;;;14.90;99.90;;;;;;4941283;29;20448;-84
2022/05/24 01:43:31;;;;;;;6.33;5.70;;;14.80;99.90;;;;;;4952958;29;20510;-83
2022/05/24 01:46:10;;;;;;;7.90;7.13;;;14.80;99.90;;;;;;4946836;29;20477;-82
2022/05/24 01:48:44;;;;;;;6.70;6.00;;;14.70;99.90;;;;;;4947421;29;20269;-82
2022/05/24 01:51:12;;;;;;;7.23;5.70;;;14.70;99.90;;;;;;4946806;29;20435;-84
2022/05/24 01:53:50;;;;;;;6.50;5.90;;;14.70;99.90;;;;;;4944854;29;20450;-82
2022/05/24 01:56:20;;;;;;;8.60;6.03;;;14.70;99.90;;;;;;4942827;29;20475;-83
2022/05/24 01:58:50;;;;;;;6.87;5.57;;;14.70;99.90;;;;;;4939369;29;20907;-83
2022/05/24 02:01:47;;;;;;;8.00;5.83;;;14.70;99.90;;;;;;4935873;29;20925;-82
2022/05/24 02:04:14;;;;;;;8.00;6.03;;;14.70;99.90;;;;;;4934656;29;20517;-83
2022/05/24 02:06:39;;;;;;;6.40;5.67;;;14.70;99.90;;;;;;4937520;29;20477;-83
2022/05/24 02:09:07;;;;;;;6.40;5.60;;;14.50;99.90;;;;;;4938085;29;21017;-82
2022/05/24 02:11:34;;;;;;;6.67;6.07;;;14.60;99.90;;;;;;4938209;29;20196;-84
2022/05/24 02:14:15;;;;;;;7.30;6.00;;;14.50;99.90;;;;;;4941895;29;20488;-83
2022/05/24 02:16:52;;;;;;;9.43;5.30;;;14.50;99.90;;;;;;4951060;28;20536;-80
2022/05/24 02:19:18;;;;;;;7.50;5.78;;;14.50;99.90;;;;;;4933235;29;20447;-80
2022/05/24 02:21:46;;;;;;;6.97;5.37;;;14.50;99.90;;;;;;4934412;29;20921;-82
2022/05/24 02:24:24;;;;;;;6.57;5.28;;;14.40;99.90;;;;;;4933801;29;20437;-81
2022/05/24 02:26:50;;;;;;;5.00;4.03;;;14.40;99.90;;;;;;4931506;29;20196;-82
2022/05/24 02:29:17;;;;;;;5.60;4.88;;;14.40;99.90;;;;;;4935892;29;20272;-86
2022/05/24 02:31:43;;;;;;;5.55;4.47;;;;;;;;;;4942218;29;20196;-87
2022/05/24 02:34:09;;;;;;;5.90;5.15;;;;;;;;;;4937996;29;20214;-88
2022/05/24 02:36:35;;;;;;;6.63;5.13;;;14.30;99.90;;;;;;4951325;29;20204;-89
2022/05/24 02:39:02;;;;;;;6.10;5.20;;;14.40;99.90;;;;;;4943984;29;20648;-86
2022/05/24 02:41:28;;;;;;;7.75;5.55;;;;;;;;;;4942832;29;20227;-83
2022/05/24 02:43:59;;;;;;;10.03;5.53;;;14.40;99.90;;;;;;4930217;29;20256;-87
2022/05/24 02:46:26;;;;;;;7.57;5.93;;;14.30;99.90;;;;;;4937764;29;20432;-87
2022/05/24 02:48:52;;;;;;;12.27;6.73;;;14.30;99.90;;;;;;4942449;29;20961;-88
2022/05/24 02:51:18;;;;;;;6.60;5.90;;;;;;;;;;4942861;29;20409;-86
2022/05/24 02:53:45;;;;;;;8.67;5.80;;;14.20;99.90;;;;;;4941653;29;20559;-87
2022/05/24 02:56:11;;;;;;;11.30;5.90;;;;;;;;;;4941487;29;20441;-86
2022/05/24 02:58:37;;;;;;;6.17;5.60;;;14.20;99.90;;;;;;4940518;29;20901;-82
2022/05/24 03:01:10;;;;;;;7.30;6.43;;;14.20;99.90;;;;;;4935253;29;20447;-82
2022/05/24 03:03:36;;;;;;;8.60;6.70;;;14.20;99.90;;;;;;4936334;29;20472;-85
2022/05/24 03:06:01;;;;;;;8.27;6.13;;;14.20;99.90;;;;;;4938450;29;20444;-84
2022/05/24 03:11:11;;;;;;;6.95;5.15;;;14.20;99.90;;;;;;4938870;29;20191;-83
2022/05/24 03:16:21;;;;;;;6.70;5.80;;;14.20;99.90;;;;;;4939254;29;20188;-83
2022/05/24 03:18:47;;;;;;;7.73;6.57;;;;;;;;;;4938686;29;20433;-83
2022/05/24 03:21:12;;;;;;;7.40;5.60;;;14.20;99.90;;;;;;4935276;29;20260;-81
2022/05/24 03:23:38;;;;;;;11.97;5.70;;;14.20;99.90;;;;;;4936975;29;20872;-84
2022/05/24 03:26:04;;;;;;;8.33;5.77;;;14.20;99.90;;;;;;4951785;29;20272;-82
2022/05/24 03:28:30;;;;;;;7.90;6.87;;;14.20;99.90;;;;;;4935470;29;20655;-83
2022/05/24 03:30:56;;;;;;;8.10;6.47;;;14.20;99.90;;;;;;4935400;29;20464;-80
2022/05/24 03:33:22;;;;;;;8.20;5.97;;;;;;;;;;4933638;29;20477;-81
2022/05/24 03:35:47;;;;;;;8.90;6.97;;;14.30;99.90;;;;;;4934633;29;20217;-84
2022/05/24 03:38:13;;;;;;;7.40;6.60;;;14.30;99.90;;;;;;4936264;29;20429;-82
2022/05/24 03:40:39;;;;;;;9.03;6.30;;;14.20;99.90;;;;;;4939895;29;20224;-84
2022/05/24 03:43:11;;;;;;;9.77;6.43;;;14.20;99.90;;;;;;4940400;29;20209;-82
2022/05/24 03:45:37;;;;;;;6.50;5.90;;;14.10;99.90;;;;;;4938630;29;20550;-82
2022/05/24 03:48:02;;;;;;;6.87;5.97;;;14.20;99.90;;;;;;4937364;29;20196;-83
2022/05/24 03:50:28;;;;;;;10.93;6.77;;;14.00;99.90;;;;;;4936904;29;20441;-84
2022/05/24 03:52:53;;;;;;;11.07;7.50;;;14.00;99.90;;;;;;4937000;28;20208;-85
2022/05/24 03:55:19;;;;;;;11.20;7.47;;;14.00;99.90;;;;;;4938798;29;20188;-85
2022/05/24 03:58:00;;;;;;;9.73;7.30;;;14.10;99.90;;;;;;4936055;29;20177;-82
2022/05/24 04:00:37;;;;;;;7.78;6.43;;;14.10;99.90;;;;;;4936680;29;20168;-83
2022/05/24 04:03:04;;;;;;;11.73;8.00;;;14.00;99.90;;;;;;4939158;28;20197;-83
2022/05/24 04:05:30;;;;;;;14.25;7.88;;;14.10;99.90;;;;;;4939394;29;20220;-83
2022/05/24 04:07:55;;;;;;;9.05;7.63;;;14.10;99.90;;;;;;4937824;29;20197;-85
2022/05/24 04:10:21;;;;;;;10.93;8.10;;;14.10;99.90;;;;;;4936099;29;20876;-86
2022/05/24 04:12:47;;;;;;;8.83;7.70;;;14.10;99.90;;;;;;4934919;28;20585;-86
2022/05/24 04:15:14;;;;;;;10.43;8.73;;;;;;;;;;4926363;29;20562;-86
2022/05/24 04:17:40;;;;;;;10.55;8.30;;;;;;;;;;4938169;29;20185;-87
2022/05/24 04:20:06;;;;;;;13.33;9.47;;;14.10;99.90;;;;;;4950997;23;20340;-84
2022/05/24 04:22:32;;;;;;;14.27;8.90;;;14.20;99.90;;;;;;4935930;28;20530;-83
2022/05/24 04:24:58;;;;;;;8.87;7.97;;;14.20;99.90;;;;;;4923934;28;20210;-82
2022/05/24 04:27:24;;;;;;;10.18;8.35;;;14.30;99.90;;;;;;4919474;29;20432;-84
2022/05/24 04:29:52;;;;;;;11.20;8.20;;;14.40;99.90;;;;;;4920193;29;20268;-82
2022/05/24 04:32:18;;;;;;;9.75;7.13;;;14.50;99.90;;;;;;4913081;29;20170;-84
2022/05/24 04:34:43;;;;;;;11.13;6.70;;;14.60;99.90;;;;;;4913207;29;20621;-83
2022/05/24 04:37:09;;;;;;;9.47;7.53;;;14.80;99.90;;;;;;4918178;29;20181;-84
2022/05/24 04:39:35;;;;;;;6.87;6.10;;;15.40;99.90;;;;;;4929390;28;20212;-81
2022/05/24 04:42:19;;;;;;;6.07;5.13;;;15.40;99.90;;;;;;4906282;29;20337;-84
2022/05/24 04:44:47;;;;;;;5.53;4.63;;;15.90;99.90;;;;;;4919117;29;20460;-86
2022/05/24 04:47:13;;;;;;;4.30;3.90;;;16.70;99.90;;;;;;4924495;28;20445;-84
2022/05/24 04:49:47;;;;;;;6.93;4.37;;;17.40;99.90;;;;;;4920307;29;20532;-83
2022/05/24 04:52:14;;;;;;;4.23;3.83;;;16.30;99.90;;;;;;4916238;29;21233;-81
2022/05/24 04:54:43;;;;;;;3.93;3.47;;;15.90;99.90;;;;;;4939493;28;20488;-87
2022/05/24 04:57:09;;;;;;;5.90;3.23;;;15.90;99.90;;;;;;4922025;29;20453;-84
2022/05/24 04:59:35;;;;;;;11.00;3.27;;;;;;;;;;4921749;29;20460;-85
2022/05/24 05:02:02;;;;;;;3.63;3.33;;;15.40;99.90;;;;;;4937830;28;20197;-84
2022/05/24 05:04:28;;;;;;;6.20;4.13;;;15.30;99.90;;;;;;4923921;29;20520;-82
2022/05/24 05:06:53;;;;;;;5.57;3.80;;;15.20;99.90;;;;;;4922368;29;20440;-85
2022/05/24 05:09:19;;;;;;;4.30;3.30;;;15.10;99.90;;;;;;4930956;29;20440;-86
2022/05/24 05:11:45;;;;;;;6.53;4.60;;;;;;;;;;4917555;29;20597;-84
2022/05/24 05:14:11;;;;;;;6.20;4.77;;;14.90;99.90;;;;;;4927578;29;20563;-83
2022/05/24 05:16:38;;;;;;;5.50;4.90;;;15.00;99.90;;;;;;4922877;29;20453;-84
2022/05/24 05:19:05;;;;;;;6.50;5.40;;;15.10;99.90;;;;;;4926165;29;20532;-84
2022/05/24 05:21:33;;;;;;;5.47;4.70;;;15.10;99.90;;;;;;4939412;29;20448;-85
2022/05/24 05:24:00;;;;;;;7.17;5.70;;;15.40;99.90;;;;;;4922597;29;20193;-84
2022/05/24 05:26:26;;;;;;;5.10;4.10;;;15.40;99.90;;;;;;4940286;28;20535;-84
2022/05/24 05:28:52;;;;;;;7.87;4.00;;;15.50;99.90;;;;;;4925547;29;20441;-85
2022/05/24 05:31:26;;;;;;;4.40;3.97;;;;;;;;;;4945161;28;20441;-84
2022/05/24 05:33:56;;;;;;;3.30;3.00;;;15.60;99.90;;;;;;4924664;29;20487;-83
2022/05/24 05:36:23;;;;;;;4.40;3.47;;;15.80;99.90;;;;;;4925172;29;20460;-84
2022/05/24 05:38:49;;;;;;;14.17;5.20;;;;;;;;;;4925961;29;20621;-84
2022/05/24 05:41:21;;;;;;;4.00;2.80;;;15.90;99.90;;;;;;4923787;29;20441;-83
2022/05/24 05:43:47;;;;;;;3.33;2.60;;;16.00;99.90;;;;;;4918808;29;20569;-85
2022/05/24 05:46:13;;;;;;;5.90;2.63;;;16.10;99.90;;;;;;4933612;29;20571;-84
2022/05/24 05:48:42;;;;;;;2.90;2.13;;;17.80;99.90;;;;;;4916758;29;20437;-82
2022/05/24 05:51:10;;;;;;;3.60;2.30;;;16.50;99.90;;;;;;4915571;29;21041;-84
2022/05/24 05:53:44;;;;;;;2.40;2.20;;;16.50;99.90;;;;;;4923726;29;20495;-84
2022/05/24 05:56:21;;;;;;;2.30;2.10;;;16.70;99.90;;;;;;4921672;29;20485;-82
2022/05/24 05:58:48;;;;;;;2.83;1.67;;;16.30;99.90;;;;;;4921464;29;20561;-83
2022/05/24 06:01:20;;;;;;;4.77;1.50;;;17.30;99.90;;;;;;4940961;28;20447;-84
2022/05/24 06:03:46;;;;;;;2.97;1.40;;;17.30;99.90;;;;;;4931503;23;20500;-86
2022/05/24 06:06:18;;;;;;;1.90;1.60;;;19.70;99.90;;;;;;4906546;29;20887;-88
2022/05/24 06:08:44;;;;;;;1.70;1.20;;;19.70;99.90;;;;;;4902413;29;20295;-88
2022/05/24 06:11:10;;;;;;;4.17;1.20;;;;;;;;;;4901295;29;20471;-85
2022/05/24 06:13:36;;;;;;;2.20;1.80;;;;;;;;;;4887766;29;20210;-88
2022/05/24 06:16:01;;;;;;;1.83;1.63;;;17.60;99.90;;;;;;4892441;29;20458;-87
2022/05/24 06:18:27;;;;;;;6.53;2.10;;;;;;;;;;4888808;29;20436;-89
2022/05/24 06:20:53;;;;;;;1.70;1.60;;;17.00;99.90;;;;;;4889282;29;20318;-87
2022/05/24 06:23:18;;;;;;;2.53;1.60;;;16.80;99.90;;;;;;4880672;29;20475;-87
2022/05/24 06:25:44;;;;;;;2.90;2.23;;;;;;;;;;4883161;29;21225;-87
2022/05/24 06:28:15;;;;;;;1.97;1.77;;;16.40;99.90;;;;;;4888908;29;20195;-87
2022/05/24 06:30:41;;;;;;;2.70;2.10;;;;;;;;;;4901124;29;20443;-87
2022/05/24 06:33:07;;;;;;;6.40;2.10;;;16.30;99.90;;;;;;4897366;29;20482;-87
2022/05/24 06:35:34;;;;;;;2.77;1.77;;;16.30;99.90;;;;;;4889938;29;20467;-88
2022/05/24 06:38:00;;;;;;;9.00;2.30;;;16.30;99.90;;;;;;4887990;29;20451;-86
2022/05/24 06:40:26;;;;;;;2.10;1.90;;;;;;;;;;4889792;29;20447;-88
2022/05/24 06:42:51;;;;;;;2.33;1.50;;;16.10;99.90;;;;;;4880567;29;20203;-86
2022/05/24 06:45:17;;;;;;;2.70;2.43;;;;;;;;;;4888156;29;20543;-86
2022/05/24 06:47:43;;;;;;;1.40;1.30;;;;;;;;;;4891963;29;20191;-88
2022/05/24 06:50:11;;;;;;;1.30;0.73;;;14.70;99.90;;;;;;4881521;29;20187;-88
2022/05/24 06:52:36;;;;;;;1.35;0.90;;;14.20;99.90;;;;;;4874132;29;20554;-88
2022/05/24 06:55:03;;;;;;;1.93;1.10;;;;;;;;;;4889678;29;20328;-89
2022/05/24 06:57:28;;;;;;;1.20;1.08;;;13.80;99.90;;;;;;4884706;29;20492;-84
2022/05/24 07:02:40;;;;;;;3.92;1.15;;;;;;;;;;4900623;29;20270;-85
2022/05/24 07:05:20;;;;;;;4.55;0.95;;;14.00;99.90;;;;;;4900255;29;20199;-86
2022/05/24 07:07:46;;;;;;;1.42;1.30;;;14.20;99.90;;;;;;4891565;29;20191;-87
2022/05/24 07:10:15;;;;;;;1.52;1.08;;;14.90;99.90;;;;;;4879476;29;20202;-86
2022/05/24 07:12:41;;;;;;;3.50;1.40;;;14.90;99.90;;;;;;4883946;29;20209;-87
2022/05/24 07:15:07;;;;;;;1.60;0.87;;;;;;;;;;4879348;29;20229;-85
2022/05/24 07:17:33;;;;;;;0.82;0.63;;;;;;;;;;4879964;29;20435;-88
2022/05/24 07:19:59;;;;;;;3.10;0.90;;;;;;;;;;4881550;29;20624;-87
2022/05/24 07:22:26;;;;;;;3.33;0.70;;;;;;;;;;4878085;29;20555;-86
2022/05/24 07:24:52;;;;;;;4.30;0.65;;;15.80;99.90;;;;;;4888271;29;20466;-88
2022/05/24 07:27:20;;;;;;;2.20;0.83;;;15.70;99.90;;;;;;4894852;29;20198;-86
2022/05/24 07:29:46;;;;;;;1.07;0.80;;;;;;;;;;4882995;29;20454;-87
2022/05/24 07:32:13;;;;;;;1.00;0.60;;;15.10;99.90;;;;;;4879495;29;20463;-87
2022/05/24 07:34:39;;;;;;;0.60;0.43;;;14.90;99.90;;;;;;4876243;29;20248;-87
2022/05/24 07:37:06;;;;;;;1.97;0.80;;;14.80;99.90;;;;;;4879430;29;20178;-86
2022/05/24 07:39:33;;;;;;;1.67;0.68;;;;;;;;;;4879083;29;20443;-87
2022/05/24 07:47:29;;;;;;;3.72;0.75;;;;;;;;;;4884698;29;20218;-88
2022/05/24 07:49:55;;;;;;;1.53;0.67;;;;;;;;;;4892013;29;20187;-87
2022/05/24 07:52:21;;;;;;;0.95;0.60;;;;;;;;;;4881129;29;20486;-89
2022/05/24 07:54:47;;;;;;;7.10;0.90;;;;;;;;;;4882477;29;20214;-88
2022/05/24 07:57:13;;;;;;;0.80;0.60;;;;;;;;;;4884538;29;20447;-88
2022/05/24 07:59:42;;;;;;;1.23;0.60;;;;;;;;;;4904190;29;20821;-89
2022/05/24 08:02:08;;;;;;;1.15;0.60;;;;;;;;;;4889422;29;20463;-87
2022/05/24 08:04:34;;;;;;;0.80;0.60;;;14.50;99.90;;;;;;4879512;29;20199;-88
2022/05/24 08:07:00;;;;;;;4.20;0.70;;;;;;;;;;4892807;29;20190;-87
2022/05/24 08:09:26;;;;;;;3.10;0.80;;;;;;;;;;4889248;29;20186;-87
2022/05/24 08:11:52;;;;;;;1.03;0.93;;;;;;;;;;4879962;29;20332;-87
2022/05/24 08:14:18;;;;;;;1.93;0.60;;;;;;;;;;4895776;29;20491;-87
2022/05/24 08:16:44;;;;;;;5.72;0.80;;;;;;;;;;4886403;29;20440;-88
2022/05/24 08:19:10;;;;;;;0.80;0.63;;;;;;;;;;4884536;29;20202;-86
2022/05/24 08:21:36;;;;;;;2.53;0.90;;;;;;;;;;4880828;29;20439;-87
2022/05/24 08:24:02;;;;;;;3.80;0.90;;;;;;;;;;4895786;29;20561;-87
2022/05/24 08:26:28;;;;;;;2.70;0.90;;;;;;;;;;4886522;29;20434;-87
2022/05/24 08:28:54;;;;;;;5.00;0.60;;;;;;;;;;4889314;29;20621;-88
2022/05/24 08:31:20;;;;;;;0.70;0.50;;;;;;;;;;4900706;29;20529;-88
2022/05/24 08:33:47;;;;;;;1.00;0.60;;;15.40;99.90;;;;;;4887096;29;20475;-88
2022/05/24 08:36:14;;;;;;;1.00;0.70;;;16.20;99.90;;;;;;4895897;29;20944;-88
2022/05/24 08:38:41;;;;;;;0.83;0.60;;;15.80;99.90;;;;;;4891270;29;20438;-87
2022/05/24 08:41:31;;;;;;;0.93;0.75;;;16.40;99.90;;;;;;4888901;29;20442;-86
2022/05/24 08:43:57;;;;;;;1.10;0.80;;;;;;;;;;4881867;29;20206;-87
2022/05/24 08:49:16;;;;;;;0.60;0.60;;;17.80;99.90;;;;;;4882321;29;20458;-87
2022/05/24 08:51:42;;;;;;;3.70;0.60;;;;;;;;;;4886582;29;20437;-88
2022/05/24 08:54:21;;;;;;;3.27;1.17;;;16.70;99.90;;;;;;4891388;29;20493;-87
2022/05/24 08:57:04;;;;;;;1.37;0.80;;;16.50;99.90;;;;;;4901431;29;20583;-88
2022/05/24 08:59:36;;;;;;;1.53;0.70;;;17.20;99.90;;;;;;4892717;29;20479;-87
2022/05/24 09:02:05;;;;;;;2.10;0.73;;;19.40;99.90;;;;;;4888369;29;20454;-88
2022/05/24 09:04:31;;;;;;;0.90;0.60;;;;;;;;;;4902367;29;20465;-87
2022/05/24 09:07:15;;;;;;;1.33;0.80;;;19.20;99.90;;;;;;4909790;29;20455;-86
2022/05/24 09:10:12;;;;;;;1.60;0.70;;;20.50;99.90;;;;;;4887846;29;20451;-87
2022/05/24 09:13:10;;;;;;;0.97;0.60;;;21.20;99.90;;;;;;4887645;29;20552;-87
2022/05/24 09:15:50;;;;;;;1.13;0.73;;;19.40;99.90;;;;;;4908287;29;20446;-88
2022/05/24 09:18:43;;;;;;;2.00;0.73;;;20.00;99.90;;;;;;4910164;29;20465;-87
2022/05/24 09:21:29;;;;;;;1.27;0.73;;;20.00;99.90;;;;;;4898075;29;20451;-89
2022/05/24 09:24:26;;;;;;;0.80;0.70;;;21.60;99.90;;;;;;4900187;29;20490;-87
2022/05/24 09:27:07;;;;;;;3.90;0.80;;;22.60;99.90;;;;;;4882021;29;20439;-89
2022/05/24 09:29:35;;;;;;;0.80;0.80;;;22.60;99.90;;;;;;4900087;29;20528;-91
2022/05/24 09:32:09;;;;;;;2.30;0.80;;;20.80;99.90;;;;;;4896614;29;20470;-88
2022/05/24 09:34:37;;;;;;;1.10;0.73;;;19.80;99.90;;;;;;4892158;29;20463;-88
2022/05/24 09:37:09;;;;;;;2.10;0.40;;;19.60;99.90;;;;;;4896410;29;20446;-90
2022/05/24 09:39:41;;;;;;;3.50;0.53;;;20.70;99.90;;;;;;4901739;29;20443;-87
2022/05/24 09:42:07;;;;;;;2.00;0.83;;;;;;;;;;4887253;29;21047;-88
2022/05/24 09:44:47;;;;;;;1.20;0.90;;;20.60;99.90;;;;;;4888976;29;20478;-86
2022/05/24 09:47:33;;;;;;;2.20;0.93;;;21.10;99.90;;;;;;4898928;29;20833;-88
2022/05/24 09:50:27;;;;;;;4.50;1.00;;;20.70;99.90;;;;;;4906580;29;20458;-87
2022/05/24 09:53:19;;;;;;;1.47;0.87;;;22.30;99.90;;;;;;4917295;29;20502;-86
2022/05/24 09:55:49;;;;;;;0.60;0.50;;;23.30;99.90;;;;;;4899698;29;20458;-87
2022/05/24 09:58:29;;;;;;;0.70;0.60;;;24.00;99.90;;;;;;4912786;29;20464;-87
2022/05/24 10:00:56;;;;;;;1.10;0.77;;;;;;;;;;4905546;29;20454;-87
2022/05/24 10:03:29;;;;;;;1.37;0.90;;;23.70;99.90;;;;;;4904275;29;21904;-86
2022/05/24 10:06:05;;;;;;;4.93;0.90;;;24.10;99.90;;;;;;4895592;29;20483;-85
2022/05/24 10:08:36;;;;;;;0.63;0.63;;;22.70;99.90;;;;;;4907539;29;20443;-88
2022/05/24 10:11:04;;;;;;;0.90;0.60;;;21.50;99.90;;;;;;4909542;29;20455;-86
2022/05/24 10:13:43;;;;;;;1.63;1.10;;;20.30;99.90;;;;;;4905000;29;20479;-87
2022/05/24 10:16:27;;;;;;;2.17;0.60;;;21.20;99.90;;;;;;4920120;29;20436;-87
2022/05/24 10:19:14;;;;;;;2.43;0.93;;;21.90;99.90;;;;;;4896225;29;20440;-87
2022/05/24 10:21:56;;;;;;;1.10;0.80;;;22.30;99.90;;;;;;4894157;29;20493;-87
2022/05/24 10:24:30;;;;;;;0.93;0.70;;;22.70;99.90;;;;;;4896020;29;20451;-87
2022/05/24 10:27:03;;;;;;;3.80;0.90;;;22.40;99.90;;;;;;4910026;29;20530;-88
2022/05/24 10:29:29;;;;;;;6.80;1.63;;;;;;;;;;4895656;29;20448;-86
2022/05/24 10:32:04;;;;;;;1.30;1.20;;;20.00;99.90;;;;;;4901801;29;20501;-87
2022/05/24 10:38:19;;;;;;;3.17;0.90;;;19.30;99.90;;;;;;4885670;29;20453;-87
2022/05/24 10:40:59;;;;;;;1.27;0.73;;;20.50;99.90;;;;;;4880373;29;20439;-87
2022/05/24 10:43:39;;;;;;;1.27;0.60;;;21.30;99.90;;;;;;4889165;29;20481;-88
2022/05/24 10:46:15;;;;;;;1.03;0.50;;;21.00;99.90;;;;;;4890635;29;20473;-88
2022/05/24 10:49:14;;;;;;;2.17;0.67;;;20.70;99.90;;;;;;4882393;29;20569;-86
2022/05/24 10:51:56;;;;;;;1.30;0.60;;;20.30;99.90;;;;;;4886445;29;20457;-88
2022/05/24 10:54:38;;;;;;;0.80;0.40;;;20.30;99.90;;;;;;4899844;29;20463;-87
2022/05/24 10:57:33;;;;;;;0.90;0.70;;;20.30;99.90;;;;;;4892692;29;20534;-88
2022/05/24 11:00:17;;;;;;;2.03;0.70;;;20.30;99.90;;;;;;4882659;29;21078;-88
2022/05/24 11:03:08;;;;;;;1.63;0.67;;;20.20;99.90;;;;;;4880713;29;20471;-88
2022/05/24 11:06:01;;;;;;;1.37;0.80;;;21.30;99.90;;;;;;4880213;29;20477;-87
2022/05/24 11:08:48;;;;;;;1.90;0.70;;;20.80;99.90;;;;;;4881481;29;20436;-88
2022/05/24 11:11:36;;;;;;;1.90;0.80;;;20.50;99.90;;;;;;4901253;29;20442;-87
2022/05/24 11:14:15;;;;;;;4.30;1.00;;;20.20;99.90;;;;;;4896773;29;20502;-85
2022/05/24 11:16:41;;;;;;;1.47;0.60;;;;;;;;;;4884753;29;20450;-87
2022/05/24 11:19:14;;;;;;;1.17;0.73;;;20.60;99.90;;;;;;4887663;29;20507;-87
2022/05/24 11:21:49;;;;;;;0.87;0.57;;;20.00;99.90;;;;;;4897300;29;20482;-87
2022/05/24 11:24:23;;;;;;;0.50;0.47;;;19.40;99.90;;;;;;4888901;29;20498;-86
2022/05/24 11:26:55;;;;;;;1.53;0.70;;;19.40;99.90;;;;;;4907807;29;20494;-86
2022/05/24 11:29:46;;;;;;;1.10;0.70;;;19.40;99.90;;;;;;4916128;28;20465;-86
2022/05/24 11:32:37;;;;;;;1.33;0.80;;;20.20;99.90;;;;;;4888132;29;20466;-88
2022/05/24 11:35:05;;;;;;;3.23;0.63;;;20.60;99.90;;;;;;4886629;29;20479;-86
2022/05/24 11:37:35;;;;;;;2.50;0.50;;;20.40;99.90;;;;;;4900232;29;21361;-86
2022/05/24 11:40:29;;;;;;;1.57;0.83;;;20.40;99.90;;;;;;4887552;29;20451;-87
2022/05/24 11:42:55;;;;;;;1.80;0.50;;;;;;;;;;4876755;29;20492;-88
2022/05/24 11:45:30;;;;;;;0.97;0.50;;;20.60;99.90;;;;;;4885649;29;20442;-88
2022/05/24 11:48:00;;;;;;;1.90;0.60;;;20.50;99.90;;;;;;4879091;29;20450;-87
2022/05/24 11:50:31;;;;;;;0.77;0.60;;;20.40;99.90;;;;;;4892424;29;20445;-89
2022/05/24 11:53:06;;;;;;;0.63;0.60;;;20.40;99.90;;;;;;4890790;29;20464;-86
2022/05/24 11:55:54;;;;;;;1.70;0.80;;;21.20;99.90;;;;;;4889882;29;21342;-88
2022/05/24 11:58:20;;;;;;;1.03;0.70;;;;;;;;;;4888081;29;20435;-88
2022/05/24 12:01:06;;;;;;;1.00;0.80;;;21.70;99.90;;;;;;4890224;29;20948;-87
2022/05/24 12:09:19;;;;;;;2.17;0.93;;;19.90;99.90;;;;;;4938911;28;20447;-82
2022/05/24 12:11:45;;;;;;;0.93;0.80;;;19.90;99.90;;;;;;4913985;29;20925;-84
2022/05/24 12:14:19;;;;;;;0.80;0.63;;;19.20;99.90;;;;;;4915063;29;20484;-83
2022/05/24 12:17:09;;;;;;;4.60;0.87;;;19.20;99.90;;;;;;4921636;29;20945;-83
2022/05/24 12:19:38;;;;;;;1.47;0.70;;;19.20;99.90;;;;;;4921730;29;20452;-84
2022/05/24 12:22:04;;;;;;;5.17;0.83;;;18.70;99.90;;;;;;4918755;29;20434;-83
2022/05/24 12:24:35;;;;;;;2.40;1.03;;;18.60;99.90;;;;;;4917396;29;20433;-82
2022/05/24 12:27:38;;;;;;;1.37;0.90;;;19.00;99.90;;;;;;4918046;29;20429;-83
2022/05/24 12:30:28;;;;;;;1.00;0.63;;;19.60;99.90;;;;;;4920457;29;20465;-83
2022/05/24 12:33:04;;;;;;;1.40;0.80;;;20.30;99.90;;;;;;4921916;29;20484;-82
2022/05/24 12:35:32;;;;;;;1.20;1.00;;;20.30;99.90;;;;;;4920381;29;20817;-83
2022/05/24 12:37:58;;;;;;;1.53;0.57;;;19.00;99.90;;;;;;4928966;29;20429;-84
2022/05/24 12:40:29;;;;;;;2.57;0.87;;;19.00;99.90;;;;;;4921716;29;20457;-83
2022/05/24 12:43:00;;;;;;;1.37;0.90;;;19.40;99.90;;;;;;4920530;29;20269;-82
2022/05/24 12:45:33;;;;;;;1.70;1.07;;;19.90;99.90;;;;;;4927237;29;21032;-83
2022/05/24 12:47:59;;;;;;;0.73;0.73;;;20.30;99.90;;;;;;4926370;29;20490;-82
2022/05/24 12:50:38;;;;;;;4.03;0.60;;;20.60;99.90;;;;;;4921714;29;20449;-84
2022/05/24 12:53:08;;;;;;;2.53;1.00;;;20.60;99.90;;;;;;4922411;29;20455;-81
2022/05/24 12:58:27;;;;;;;4.30;2.03;;;20.00;99.90;;;;;;4925534;29;20460;-81
2022/05/24 13:01:25;;;;;;;2.80;0.87;;;20.40;99.90;;;;;;4927233;29;20455;-81
2022/05/24 13:04:19;;;;;;;2.73;0.63;;;20.50;99.90;;;;;;4919860;29;20467;-84
2022/05/24 13:06:46;;;;;;;2.60;0.60;;;20.80;99.90;;;;;;4921679;29;20443;-84
2022/05/24 13:09:12;;;;;;;3.53;1.00;;;;;;;;;;4919995;29;20617;-85
2022/05/24 13:11:39;;;;;;;2.30;0.60;;;;;;;;;;4919961;29;20986;-84
2022/05/24 13:14:07;;;;;;;1.63;0.70;;;19.90;99.90;;;;;;4925795;29;20472;-84
2022/05/24 13:16:34;;;;;;;1.90;0.70;;;20.30;99.90;;;;;;4924714;29;20821;-85
2022/05/24 13:19:03;;;;;;;1.10;0.80;;;20.60;99.90;;;;;;4918285;29;20447;-84
2022/05/24 13:21:31;;;;;;;1.70;0.70;;;20.50;99.90;;;;;;4921471;29;20993;-84
2022/05/24 13:24:17;;;;;;;3.80;0.90;;;20.60;99.90;;;;;;4921530;29;20508;-84
2022/05/24 13:27:06;;;;;;;1.37;0.80;;;20.90;99.90;;;;;;4921655;29;20434;-84
2022/05/24 13:33:33;;;;;;;3.77;0.83;;;20.10;99.90;;;;;;4919892;29;20529;-85
2022/05/24 13:35:02;;;;;;;1.90;0.70;;;19.90;99.90;;;;;;4919828;29;20576;-85
2022/05/24 13:37:50;;;;;;;1.00;0.67;;;20.10;99.90;;;;;;4923287;29;20439;-85
2022/05/24 13:40:16;;;;;;;3.47;1.33;;;20.50;99.90;;;;;;4928668;29;20491;-85
2022/05/24 13:43:00;;;;;;;1.83;0.77;;;20.20;99.90;;;;;;4929013;29;20418;-85
2022/05/24 13:45:27;;;;;;;2.30;1.27;;;20.30;99.90;;;;;;4927101;29;20438;-85
2022/05/24 13:48:02;;;;;;;1.10;0.70;;;20.30;99.90;;;;;;4926868;29;20548;-86
2022/05/24 13:50:41;;;;;;;2.87;0.60;;;20.30;99.90;;;;;;4921566;29;20516;-85
2022/05/24 13:53:39;;;;;;;2.13;1.07;;;20.70;99.90;;;;;;4928388;29;20478;-84
2022/05/24 13:56:07;;;;;;;2.97;0.77;;;20.10;99.90;;;;;;4926884;29;20433;-84
2022/05/24 13:58:41;;;;;;;0.50;0.50;;;20.20;99.90;;;;;;4925801;29;20525;-85
2022/05/24 14:01:31;;;;;;;2.43;0.60;;;20.40;99.90;;;;;;4926892;29;20460;-85
2022/05/24 14:04:01;;;;;;;2.10;0.67;;;20.20;99.90;;;;;;4924388;29;20452;-85